Time;durP1;ratioP1;P1;durP2;ratioP2;P2;SDS_P1;SDS_P2;PMS_P1;PMS_P2;Temp;Humidity;BMP_temperature;BMP_pressure;BME280_temperature;BME280_humidity;BME280_pressure;Samples;Min_cycle;Max_cycle;Signal;HPM_P1;HPM_P2
2022/12/19 00:02:22;;;;;;;9.40;8.23;;;;;;;0.26;72.89;102016.13;5054913;28;20229;-75
2022/12/19 00:04:49;;;;;;;10.20;7.77;;;;;;;0.27;72.25;101962.25;5055435;28;20233;-76
2022/12/19 00:07:15;;;;;;;9.00;7.70;;;;;;;0.33;71.52;101944.56;5055267;28;20205;-77
2022/12/19 00:09:42;;;;;;;8.97;8.00;;;;;;;0.31;72.42;101928.22;5055087;28;20233;-77
2022/12/19 00:12:08;;;;;;;9.00;8.10;;;;;;;0.22;72.76;101902.13;5054614;28;20225;-77
2022/12/19 00:14:34;;;;;;;9.10;7.73;;;;;;;0.22;73.02;101847.31;5054996;28;20201;-76
2022/12/19 00:17:01;;;;;;;9.37;8.30;;;;;;;0.26;73.08;101819.28;5055017;28;20217;-77
2022/12/19 00:19:29;;;;;;;9.30;7.90;;;;;;;0.24;73.11;101820.91;5055054;28;20670;-77
2022/12/19 00:21:55;;;;;;;8.77;7.87;;;;;;;0.25;73.77;101814.06;5054567;28;20213;-77
2022/12/19 00:24:22;;;;;;;9.70;8.60;;;;;;;0.21;72.31;101819.88;5055164;28;20226;-76
2022/12/19 00:26:49;;;;;;;10.43;8.20;;;;;;;0.24;71.51;101848.25;5054816;28;20216;-76
2022/12/19 00:29:15;;;;;;;9.03;7.80;;;;;;;0.26;72.10;101847.53;5054793;28;20233;-76
2022/12/19 00:31:41;;;;;;;9.03;7.83;;;;;;;0.24;70.84;101833.75;5054196;28;20201;-76
2022/12/19 00:34:09;;;;;;;8.40;7.50;;;;;;;0.28;71.19;101857.84;5054298;28;20223;-76
2022/12/19 00:36:36;;;;;;;9.80;8.40;;;;;;;0.26;71.20;101875.78;5054645;28;20252;-76
2022/12/19 00:39:05;;;;;;;10.23;9.07;;;;;;;0.25;70.92;101871.44;5054439;28;20209;-77
2022/12/19 00:41:33;;;;;;;9.57;8.57;;;;;;;0.30;70.36;101884.50;5054221;28;20209;-76
2022/12/19 00:44:02;;;;;;;11.07;8.47;;;;;;;0.32;71.64;101904.31;5054190;28;20280;-77
2022/12/19 00:46:31;;;;;;;9.00;8.03;;;;;;;0.39;73.67;101875.50;5054544;28;20233;-75
2022/12/19 00:48:58;;;;;;;9.17;7.73;;;;;;;0.42;72.28;101836.25;5054310;28;20257;-77
2022/12/19 00:51:27;;;;;;;9.40;8.40;;;;;;;0.38;75.24;101827.53;5053752;28;20212;-75
2022/12/19 00:53:56;;;;;;;9.60;8.60;;;;;;;0.35;75.03;101775.16;5053997;28;20239;-77
2022/12/19 00:56:25;;;;;;;9.77;8.77;;;;;;;0.32;74.63;101767.31;5054276;28;20206;-77
2022/12/19 00:58:52;;;;;;;9.50;8.40;;;;;;;0.41;76.01;101759.13;5054149;28;20673;-76
2022/12/19 01:01:21;;;;;;;10.20;8.80;;;;;;;0.31;75.91;101716.75;5053671;28;20580;-77
2022/12/19 01:03:48;;;;;;;9.43;8.43;;;;;;;0.31;76.50;101678.25;5057628;28;20684;-77
2022/12/19 01:06:15;;;;;;;10.43;8.63;;;;;;;0.37;76.67;101647.69;5074150;28;20281;-77
2022/12/19 01:08:41;;;;;;;9.70;8.53;;;;;;;0.44;79.10;101649.72;5073870;28;20200;-76
2022/12/19 01:11:10;;;;;;;10.67;9.57;;;;;;;0.38;79.37;101588.69;5073575;28;20213;-77
2022/12/19 01:13:37;;;;;;;10.70;9.73;;;;;;;0.40;80.07;101570.78;5073889;28;20225;-77
2022/12/19 01:16:05;;;;;;;10.80;9.77;;;;;;;0.42;80.91;101507.50;5073803;28;20205;-77
2022/12/19 01:18:32;;;;;;;11.53;9.20;;;;;;;0.38;81.20;101482.53;5073602;28;20210;-76
2022/12/19 01:21:00;;;;;;;11.27;10.07;;;;;;;0.39;82.19;101463.72;5073707;28;20233;-75
2022/12/19 01:23:28;;;;;;;13.53;9.43;;;;;;;0.30;83.27;101453.09;5073609;28;20229;-77
2022/12/19 01:25:55;;;;;;;12.00;9.63;;;;;;;0.30;84.51;101401.75;5073689;28;20206;-77
2022/12/19 01:28:23;;;;;;;11.53;10.30;;;;;;;0.35;84.46;101365.13;5073659;28;20610;-76
2022/12/19 01:30:51;;;;;;;12.03;10.20;;;;;;;0.32;85.31;101347.03;5073425;28;20619;-76
2022/12/19 01:33:19;;;;;;;11.13;9.97;;;;;;;0.31;84.40;101336.72;5073129;28;20237;-76
2022/12/19 01:35:47;;;;;;;12.60;10.47;;;;;;;0.26;83.41;101351.97;5073608;28;20202;-77
2022/12/19 01:38:14;;;;;;;14.40;10.50;;;;;;;0.25;83.65;101386.13;5073338;28;20443;-77
2022/12/19 01:40:48;;;;;;;13.97;10.63;;;;;;;0.25;83.82;101370.72;5073165;28;20278;-76
2022/12/19 01:43:16;;;;;;;10.67;9.57;;;;;;;0.27;85.62;101353.69;5073327;28;20231;-76
2022/12/19 01:45:44;;;;;;;12.17;10.53;;;;;;;0.30;84.27;101363.22;5073185;28;20597;-76
2022/12/19 01:48:20;;;;;;;11.30;9.70;;;;;;;0.16;86.48;101314.78;5073144;28;20217;-76
2022/12/19 01:50:53;;;;;;;14.03;10.70;;;;;;;0.13;86.34;101281.28;5072705;28;20205;-76
2022/12/19 01:53:22;;;;;;;15.10;10.47;;;;;;;0.15;85.83;101282.22;5072469;28;20726;-75
2022/12/19 01:55:49;;;;;;;12.00;9.83;;;;;;;0.05;84.52;101303.25;5072225;28;20201;-76
2022/12/19 01:58:16;;;;;;;11.80;10.57;;;;;;;0.12;83.65;101333.47;5073007;28;20262;-76
2022/12/19 02:00:44;;;;;;;12.63;10.53;;;;;;;0.15;84.58;101338.69;5072720;28;20206;-77
2022/12/19 02:03:18;;;;;;;12.03;10.43;;;;;;;0.15;84.81;101307.91;5072631;28;20242;-77
2022/12/19 02:05:44;;;;;;;13.03;10.87;;;;;;;0.20;86.04;101315.78;5072969;28;20231;-76
2022/12/19 02:08:11;;;;;;;11.23;10.13;;;;;;;0.14;85.16;101298.47;5072756;28;20683;-77
2022/12/19 02:10:38;;;;;;;12.03;10.53;;;;;;;0.23;86.35;101308.19;5072406;28;20574;-77
2022/12/19 02:13:05;;;;;;;12.70;9.97;;;;;;;0.27;86.67;101293.78;5072588;28;20228;-76
2022/12/19 02:15:41;;;;;;;13.87;11.03;;;;;;;0.23;86.34;101286.78;5072509;28;20696;-76
2022/12/19 02:18:22;;;;;;;10.77;9.70;;;;;;;0.24;85.06;101291.97;5072341;28;20213;-77
2022/12/19 02:21:15;;;;;;;11.13;9.77;;;;;;;0.30;84.75;101320.44;5072547;28;20205;-76
2022/12/19 02:24:14;;;;;;;13.07;9.97;;;;;;;0.27;84.40;101335.72;5072357;28;20231;-76
2022/12/19 02:27:02;;;;;;;11.13;9.63;;;;;;;0.26;85.11;101333.97;5072619;28;20221;-75
2022/12/19 02:30:01;;;;;;;15.90;10.37;;;;;;;0.37;85.91;101314.69;5072489;28;20205;-76
2022/12/19 02:32:33;;;;;;;10.47;9.17;;;;;;;0.39;85.09;101283.94;5072080;28;20231;-74
2022/12/19 02:35:07;;;;;;;13.23;10.37;;;;;;;0.38;84.99;101297.63;5072446;28;20204;-77
2022/12/19 02:37:38;;;;;;;11.83;9.80;;;;;;;0.42;84.80;101278.03;5072581;28;20200;-77
2022/12/19 02:40:09;;;;;;;10.53;9.43;;;;;;;0.44;84.92;101291.78;5071966;28;20201;-77
2022/12/19 02:42:39;;;;;;;11.53;10.33;;;;;;;0.46;85.99;101282.47;5072229;28;20232;-76
2022/12/19 02:45:09;;;;;;;11.47;9.97;;;;;;;0.51;85.89;101271.53;5071988;28;20229;-76
2022/12/19 02:47:38;;;;;;;10.73;9.57;;;;;;;0.49;83.76;101291.16;5072488;28;20217;-77
2022/12/19 02:50:06;;;;;;;11.33;9.40;;;;;;;0.47;84.48;101291.91;5071898;28;20219;-77
2022/12/19 02:52:47;;;;;;;10.77;9.23;;;;;;;0.54;85.56;101287.06;5072011;28;20287;-76
2022/12/19 02:55:18;;;;;;;13.83;10.50;;;;;;;0.59;84.39;101316.38;5071925;28;20197;-75
2022/12/19 02:57:59;;;;;;;11.10;9.63;;;;;;;0.64;84.78;101324.22;5071878;28;20205;-76
2022/12/19 03:00:27;;;;;;;11.40;10.30;;;;;;;0.62;82.78;101358.41;5071792;28;20589;-76
2022/12/19 03:03:05;;;;;;;12.00;9.77;;;;;;;0.68;83.65;101343.22;5071952;28;20313;-76
2022/12/19 03:05:36;;;;;;;10.40;9.30;;;;;;;0.74;83.70;101349.44;5071794;28;20232;-76
2022/12/19 03:08:08;;;;;;;10.87;9.37;;;;;;;0.70;83.73;101357.84;5071929;28;20205;-76
2022/12/19 03:10:39;;;;;;;13.90;10.33;;;;;;;0.78;83.78;101348.72;5071656;28;20208;-76
2022/12/19 03:13:10;;;;;;;12.57;10.80;;;;;;;0.79;81.65;101359.84;5071862;28;20228;-76
2022/12/19 03:15:38;;;;;;;14.47;10.27;;;;;;;0.83;81.27;101395.13;5071939;28;20215;-76
2022/12/19 03:18:06;;;;;;;12.10;10.80;;;;;;;0.93;82.74;101386.94;5071746;28;20205;-76
2022/12/19 03:20:43;;;;;;;11.20;9.53;;;;;;;0.90;81.26;101414.22;5071484;28;20204;-76
2022/12/19 03:23:10;;;;;;;11.17;10.07;;;;;;;0.87;80.98;101427.81;5071674;28;20233;-76
2022/12/19 03:25:36;;;;;;;10.67;9.47;;;;;;;0.91;80.48;101444.25;5071534;28;20232;-76
2022/12/19 03:28:07;;;;;;;12.90;10.13;;;;;;;0.94;80.32;101460.66;5071756;28;20213;-75
2022/12/19 03:30:35;;;;;;;10.43;9.30;;;;;;;1.01;80.41;101479.75;5070520;28;20217;-74
2022/12/19 03:33:03;;;;;;;11.37;9.77;;;;;;;1.11;80.94;101483.53;5070786;28;20603;-74
2022/12/19 03:35:33;;;;;;;11.73;10.43;;;;;;;1.13;81.33;101463.88;5071710;28;20205;-76
2022/12/19 03:38:02;;;;;;;10.67;9.57;;;;;;;1.16;80.87;101456.31;5071756;28;20196;-77
2022/12/19 03:40:31;;;;;;;11.87;10.47;;;;;;;1.11;81.00;101458.72;5071401;28;20578;-78
2022/12/19 03:43:08;;;;;;;11.73;10.37;;;;;;;1.02;81.24;101457.50;5071381;28;20229;-76
2022/12/19 03:45:44;;;;;;;11.97;10.43;;;;;;;1.04;81.10;101454.16;5071827;28;20228;-77
2022/12/19 03:48:15;;;;;;;11.83;10.43;;;;;;;1.13;81.11;101453.59;5071538;28;20204;-77
2022/12/19 03:50:48;;;;;;;11.37;9.53;;;;;;;1.08;80.02;101448.31;5071229;28;20213;-77
2022/12/19 03:53:27;;;;;;;12.03;9.37;;;;;;;1.13;79.80;101472.50;5071320;28;20260;-77
2022/12/19 03:56:00;;;;;;;11.63;10.43;;;;;;;1.12;80.33;101483.59;5071370;28;20586;-77
2022/12/19 03:58:32;;;;;;;14.47;10.80;;;;;;;1.08;79.51;101489.44;5071602;28;20209;-75
2022/12/19 04:01:00;;;;;;;12.60;10.00;;;;;;;1.08;80.23;101492.00;5071226;28;20216;-76
2022/12/19 04:03:28;;;;;;;11.47;10.27;;;;;;;1.14;79.92;101474.25;5071312;28;20253;-75
2022/12/19 04:05:58;;;;;;;11.60;10.17;;;;;;;1.19;80.38;101462.44;5071004;28;20224;-77
2022/12/19 04:08:25;;;;;;;12.87;10.50;;;;;;;1.20;80.48;101471.00;5071411;28;20209;-77
2022/12/19 04:10:55;;;;;;;12.20;10.03;;;;;;;1.17;80.49;101456.38;5070946;28;20209;-79
2022/12/19 04:13:29;;;;;;;12.07;10.87;;;;;;;1.10;79.71;101456.94;5071153;28;20224;-76
2022/12/19 04:16:02;;;;;;;11.07;9.97;;;;;;;1.16;80.79;101446.88;5071076;28;20716;-78
2022/12/19 04:18:30;;;;;;;13.40;10.87;;;;;;;1.16;80.12;101458.88;5071226;28;20201;-78
2022/12/19 04:21:03;;;;;;;11.43;10.33;;;;;;;1.14;80.77;101456.25;5071112;28;20255;-77
2022/12/19 04:23:33;;;;;;;13.23;10.40;;;;;;;1.18;78.88;101472.66;5071039;28;20228;-78
2022/12/19 04:26:03;;;;;;;11.97;10.73;;;;;;;1.18;80.30;101467.50;5070940;28;20225;-75
2022/12/19 04:28:34;;;;;;;11.03;9.93;;;;;;;1.22;80.18;101435.94;5071237;28;20207;-77
2022/12/19 04:31:02;;;;;;;13.10;10.20;;;;;;;1.26;80.59;101421.50;5070725;28;20213;-77
2022/12/19 04:33:28;;;;;;;11.63;10.43;;;;;;;1.26;80.90;101419.78;5070624;28;20584;-77
2022/12/19 04:35:55;;;;;;;12.23;10.93;;;;;;;1.19;79.28;101429.00;5071177;28;20208;-77
2022/12/19 04:38:22;;;;;;;10.77;9.67;;;;;;;1.25;79.81;101442.88;5070909;28;20211;-78
2022/12/19 04:40:49;;;;;;;12.17;10.90;;;;;;;1.30;79.35;101437.06;5071009;28;20210;-77
2022/12/19 04:43:15;;;;;;;12.13;10.53;;;;;;;1.33;79.95;101426.03;5074587;28;20228;-78
2022/12/19 04:45:42;;;;;;;11.73;10.53;;;;;;;1.31;79.96;101405.41;5074577;28;20237;-78
2022/12/19 04:48:08;;;;;;;10.70;9.60;;;;;;;1.17;80.64;101407.50;5074441;28;20213;-78
2022/12/19 04:50:35;;;;;;;12.33;10.87;;;;;;;1.21;81.36;101407.59;5074134;28;20205;-77
2022/12/19 04:53:01;;;;;;;14.57;10.53;;;;;;;1.30;80.98;101374.47;5074127;28;20248;-77
2022/12/19 04:55:29;;;;;;;14.13;10.70;;;;;;;1.34;80.63;101368.63;5074121;28;20254;-78
2022/12/19 04:57:56;;;;;;;12.87;10.50;;;;;;;1.28;81.51;101356.44;5074482;28;20214;-77
2022/12/19 05:00:22;;;;;;;11.57;10.43;;;;;;;1.32;80.81;101335.13;5074032;28;20209;-77
2022/12/19 05:02:49;;;;;;;15.50;10.67;;;;;;;1.30;80.49;101321.34;5074107;28;20229;-76
2022/12/19 05:05:16;;;;;;;12.60;10.77;;;;;;;1.39;80.15;101339.66;5074077;28;20225;-78
2022/12/19 05:07:43;;;;;;;11.57;10.47;;;;;;;1.35;81.38;101334.38;5074206;28;20292;-77
2022/12/19 05:10:10;;;;;;;11.90;10.70;;;;;;;1.35;81.56;101322.38;5073764;28;20211;-77
2022/12/19 05:12:37;;;;;;;11.07;9.97;;;;;;;1.25;81.57;101294.63;5073874;28;20222;-78
2022/12/19 05:15:05;;;;;;;12.93;11.30;;;;;;;1.38;81.46;101301.03;5074156;28;20202;-77
2022/12/19 05:17:31;;;;;;;15.23;11.30;;;;;;;1.37;82.93;101274.44;5073969;28;20233;-78
2022/12/19 05:19:58;;;;;;;13.57;10.03;;;;;;;1.43;82.27;101260.91;5073607;28;20206;-77
2022/12/19 05:22:24;;;;;;;13.53;10.20;;;;;;;1.35;82.46;101246.94;5073615;28;20746;-77
2022/12/19 05:24:51;;;;;;;11.77;10.47;;;;;;;1.38;82.42;101247.00;5073759;28;20217;-76
2022/12/19 05:27:17;;;;;;;12.83;11.27;;;;;;;1.42;82.77;101247.97;5073659;28;20208;-76
2022/12/19 05:29:45;;;;;;;13.53;10.63;;;;;;;1.45;82.17;101232.63;5073753;28;20237;-76
2022/12/19 05:32:11;;;;;;;12.47;10.67;;;;;;;1.46;82.02;101240.41;5073585;28;20240;-77
2022/12/19 05:34:38;;;;;;;12.77;11.33;;;;;;;1.48;81.95;101243.88;5073007;28;20216;-76
2022/12/19 05:37:04;;;;;;;13.37;10.70;;;;;;;1.45;82.26;101242.91;5073622;28;20205;-76
2022/12/19 05:39:31;;;;;;;12.43;11.17;;;;;;;1.45;81.78;101246.38;5073675;28;20205;-78
2022/12/19 05:41:57;;;;;;;11.47;10.27;;;;;;;1.52;82.01;101248.31;5072951;28;20208;-77
2022/12/19 05:44:24;;;;;;;12.00;10.80;;;;;;;1.57;82.25;101244.19;5073397;28;20555;-77
2022/12/19 05:46:52;;;;;;;13.40;11.30;;;;;;;1.54;81.51;101266.38;5073172;28;20718;-76
2022/12/19 05:49:18;;;;;;;12.93;11.33;;;;;;;1.55;81.50;101263.84;5073170;28;20209;-77
2022/12/19 05:51:45;;;;;;;12.57;11.13;;;;;;;1.59;82.50;101242.53;5072893;28;20210;-78
2022/12/19 05:54:11;;;;;;;14.27;10.90;;;;;;;1.62;83.00;101243.44;5083570;22;20238;-77
2022/12/19 05:56:37;;;;;;;15.03;11.57;;;;;;;1.58;83.68;101219.31;5053087;28;20215;-77
2022/12/19 05:59:04;;;;;;;13.37;12.00;;;;;;;1.59;83.98;101203.06;5053263;28;20207;-77
2022/12/19 06:01:31;;;;;;;13.23;11.50;;;;;;;1.65;84.59;101171.50;5052608;28;20228;-77
2022/12/19 06:03:58;;;;;;;12.47;11.17;;;;;;;1.53;84.63;101151.44;5053356;28;20230;-77
2022/12/19 06:06:26;;;;;;;14.17;11.53;;;;;;;1.63;85.15;101132.00;5052897;28;20241;-77
2022/12/19 06:08:53;;;;;;;13.60;10.97;;;;;;;1.64;85.87;101111.41;5052969;28;20688;-77
2022/12/19 06:11:20;;;;;;;12.43;10.43;;;;;;;1.73;85.50;101101.41;5052741;28;20244;-77
2022/12/19 06:13:46;;;;;;;12.93;11.60;;;;;;;1.75;85.86;101083.44;5060021;28;20230;-78
2022/12/19 06:16:15;;;;;;;12.73;11.50;;;;;;;1.75;85.79;101075.72;5060469;28;20207;-77
2022/12/19 06:18:43;;;;;;;12.70;11.50;;;;;;;1.61;86.58;101059.91;5056570;28;20564;-77
2022/12/19 06:21:13;;;;;;;14.07;12.40;;;;;;;1.65;87.45;101025.69;5055628;28;20209;-77
2022/12/19 06:23:39;;;;;;;12.47;10.93;;;;;;;1.61;87.75;101005.00;5053856;28;20772;-77
2022/12/19 06:26:08;;;;;;;13.43;11.40;;;;;;;1.55;86.84;101004.00;5052990;28;20233;-77
2022/12/19 06:28:35;;;;;;;12.50;11.27;;;;;;;1.58;86.99;101004.06;5052946;28;20209;-77
2022/12/19 06:31:03;;;;;;;14.40;11.90;;;;;;;1.56;86.86;100995.41;5052939;28;20217;-77
2022/12/19 06:33:31;;;;;;;13.37;11.07;;;;;;;1.62;87.22;100993.84;5052118;28;20226;-78
2022/12/19 06:35:58;;;;;;;12.77;11.47;;;;;;;1.73;87.03;100979.56;5053200;28;20213;-77
2022/12/19 06:38:26;;;;;;;13.63;12.23;;;;;;;1.64;88.10;100982.75;5053150;28;20206;-78
2022/12/19 06:43:37;;;;;;;14.07;12.57;;;;;;;1.58;88.34;100950.03;5053481;28;20247;-77
2022/12/19 06:46:03;;;;;;;13.13;11.70;;;;;;;1.63;88.09;100960.47;5053075;28;20225;-78
2022/12/19 06:48:30;;;;;;;12.93;11.63;;;;;;;1.63;88.63;100960.47;5052932;28;20561;-78
2022/12/19 06:50:56;;;;;;;13.63;12.20;;;;;;;1.63;89.20;100952.75;5052781;28;20215;-78
2022/12/19 06:53:23;;;;;;;16.57;12.47;;;;;;;1.63;88.83;100962.16;5052773;28;20237;-78
2022/12/19 06:55:54;;;;;;;14.83;11.93;;;;;;;1.61;89.88;100931.25;5053028;28;20207;-78
2022/12/19 06:58:21;;;;;;;14.43;12.60;;;;;;;1.62;90.21;100907.25;5053401;28;20205;-78
2022/12/19 07:00:47;;;;;;;15.23;13.20;;;;;;;1.62;91.12;100901.22;5053121;28;20206;-77
2022/12/19 07:03:17;;;;;;;18.17;13.50;;;;;;;1.56;92.26;100877.06;5051800;28;20229;-78
2022/12/19 07:05:44;;;;;;;15.53;13.17;;;;;;;1.57;92.64;100849.66;5052219;28;20642;-78
2022/12/19 07:08:10;;;;;;;15.23;12.53;;;;;;;1.55;92.96;100825.59;5051986;28;20212;-78
2022/12/19 07:10:37;;;;;;;16.73;13.53;;;;;;;1.61;93.87;100817.16;5052862;28;20213;-78
2022/12/19 07:13:05;;;;;;;15.00;12.80;;;;;;;1.62;93.76;100806.88;5052551;28;20222;-78
2022/12/19 07:15:33;;;;;;;15.67;12.87;;;;;;;1.60;94.26;100793.13;5052292;28;20213;-77
2022/12/19 07:17:59;;;;;;;14.93;12.70;;;;;;;1.64;94.95;100783.78;5051967;28;20224;-77
2022/12/19 07:20:27;;;;;;;14.57;12.80;;;;;;;1.68;95.21;100775.28;5051385;28;20221;-77
2022/12/19 07:22:54;;;;;;;15.47;13.07;;;;;;;1.69;95.11;100775.34;5051810;28;20205;-77
2022/12/19 07:25:21;;;;;;;16.10;13.17;;;;;;;1.65;95.68;100762.38;5051706;28;20206;-78
2022/12/19 07:27:47;;;;;;;14.73;12.83;;;;;;;1.71;95.55;100755.66;5051798;28;20561;-77
2022/12/19 07:30:15;;;;;;;15.33;13.67;;;;;;;1.78;95.51;100761.78;5051402;28;20297;-78
2022/12/19 07:32:42;;;;;;;18.30;14.83;;;;;;;1.79;95.72;100756.69;5051110;28;20213;-77
2022/12/19 07:35:09;;;;;;;16.03;13.97;;;;;;;1.81;96.13;100743.84;5051625;28;20226;-77
2022/12/19 07:37:35;;;;;;;17.10;13.87;;;;;;;1.77;96.99;100755.78;5051645;28;20224;-77
2022/12/19 07:40:02;;;;;;;18.80;14.73;;;;;;;1.75;97.75;100743.72;5051481;28;20214;-78
2022/12/19 07:42:29;;;;;;;19.53;14.00;;;;;;;1.84;97.70;100725.03;5052255;28;20206;-78
2022/12/19 07:44:56;;;;;;;17.30;14.53;;;;;;;1.90;97.76;100714.84;5052008;28;20650;-78
2022/12/19 07:47:26;;;;;;;18.23;14.57;;;;;;;1.93;98.53;100713.22;5052479;28;20233;-78
2022/12/19 07:49:52;;;;;;;17.00;14.80;;;;;;;2.01;97.74;100717.66;5052621;28;20217;-77
2022/12/19 07:52:19;;;;;;;19.03;15.23;;;;;;;1.92;99.13;100708.03;5052692;28;20285;-78
2022/12/19 07:54:45;;;;;;;20.13;16.53;;;;;;;1.97;99.09;100693.56;5052546;28;20747;-77
2022/12/19 07:57:12;;;;;;;17.27;15.10;;;;;;;2.04;99.03;100695.41;5052548;28;20706;-78
2022/12/19 07:59:38;;;;;;;18.97;15.33;;;;;;;1.93;100.00;100697.78;5052939;28;20213;-78
2022/12/19 08:02:05;;;;;;;26.60;18.40;;;;;;;2.01;100.00;100689.34;5052216;28;20709;-78
2022/12/19 08:04:32;;;;;;;21.10;16.37;;;;;;;2.01;100.00;100689.34;5053473;28;20226;-78
2022/12/19 08:06:59;;;;;;;21.70;16.17;;;;;;;1.98;100.00;100690.13;5053112;28;20229;-78
2022/12/19 08:09:26;;;;;;;16.77;14.70;;;;;;;2.01;100.00;100674.75;5053322;28;20265;-78
2022/12/19 08:11:53;;;;;;;17.57;15.67;;;;;;;1.97;100.00;100663.53;5052651;28;20213;-78
2022/12/19 08:14:19;;;;;;;19.80;15.90;;;;;;;2.02;100.00;100655.88;5053040;28;20284;-78
2022/12/19 08:16:46;;;;;;;21.27;19.20;;;;;;;2.08;100.00;100650.00;5053711;28;20435;-78
2022/12/19 08:19:12;;;;;;;19.77;15.33;;;;;;;2.16;100.00;100644.16;5057049;28;20212;-79
2022/12/19 08:21:40;;;;;;;21.83;19.48;;;;;;;2.26;100.00;100645.22;5055556;28;20444;-78
2022/12/19 08:24:07;;;;;;;20.13;15.50;;;;;;;2.34;100.00;100653.94;5056664;28;20599;-78
2022/12/19 08:26:33;;;;;;;16.30;14.60;;;;;;;2.35;100.00;100665.97;5057493;28;20227;-79
2022/12/19 08:29:00;;;;;;;19.57;14.23;;;;;;;2.25;100.00;100664.06;5058022;28;20265;-78
2022/12/19 08:31:28;;;;;;;21.10;16.97;;;;;;;2.25;100.00;100658.03;5056307;28;20213;-78
2022/12/19 08:33:56;;;;;;;22.03;17.70;;;;;;;2.24;100.00;100657.19;5056278;28;20222;-78
2022/12/19 08:36:24;;;;;;;17.50;14.47;;;;;;;2.26;100.00;100660.66;5057092;28;20206;-78
2022/12/19 08:38:52;;;;;;;17.30;15.57;;;;;;;2.22;100.00;100655.41;5057044;28;20208;-78
2022/12/19 08:41:18;;;;;;;16.80;14.80;;;;;;;2.26;100.00;100655.50;5056296;28;20264;-78
2022/12/19 08:43:48;;;;;;;17.47;14.03;;;;;;;2.24;100.00;100646.00;5056606;28;20222;-78
2022/12/19 08:46:16;;;;;;;15.40;13.80;;;;;;;2.22;100.00;100650.25;5057785;28;20653;-78
2022/12/19 08:48:42;;;;;;;15.43;13.93;;;;;;;2.21;100.00;100631.38;5055854;28;20263;-77
2022/12/19 08:51:11;;;;;;;15.93;13.67;;;;;;;2.26;100.00;100644.31;5056584;28;20207;-78
2022/12/19 08:53:40;;;;;;;16.40;14.27;;;;;;;2.30;100.00;100628.97;5057109;28;20241;-79
2022/12/19 08:56:11;;;;;;;16.90;14.93;;;;;;;2.30;100.00;100635.81;5057651;28;20210;-78
2022/12/19 08:58:37;;;;;;;22.30;18.73;;;;;;;2.31;100.00;100617.81;5056604;28;20198;-77
2022/12/19 09:01:07;;;;;;;15.93;13.97;;;;;;;2.35;100.00;100624.75;5056291;28;20777;-78
2022/12/19 09:03:34;;;;;;;16.13;14.30;;;;;;;2.41;100.00;100625.69;5056268;28;20225;-78
2022/12/19 09:06:02;;;;;;;16.73;14.87;;;;;;;2.38;100.00;100623.94;5056819;28;20206;-79
2022/12/19 09:08:29;;;;;;;14.73;13.10;;;;;;;2.37;100.00;100611.91;5057069;28;20665;-78
2022/12/19 09:10:58;;;;;;;13.83;12.47;;;;;;;2.39;100.00;100605.91;5056943;28;20208;-79
2022/12/19 09:13:26;;;;;;;14.03;12.63;;;;;;;2.44;100.00;100599.97;5056782;28;20233;-79
2022/12/19 09:16:00;;;;;;;13.47;11.90;;;;;;;2.51;100.00;100596.66;5056782;28;20211;-78
2022/12/19 09:18:26;;;;;;;15.02;13.63;;;;;;;2.51;100.00;100604.41;5055033;28;20508;-78
2022/12/19 09:20:54;;;;;;;13.33;11.60;;;;;;;2.55;100.00;100586.44;5054721;28;20229;-78
2022/12/19 09:23:20;;;;;;;12.30;11.20;;;;;;;2.55;100.00;100585.56;5055035;28;20226;-78
2022/12/19 09:25:47;;;;;;;11.93;10.63;;;;;;;2.58;100.00;100594.22;5054930;28;20203;-77
2022/12/19 09:28:14;;;;;;;11.63;10.53;;;;;;;2.63;100.00;100588.28;5053255;28;20246;-78
2022/12/19 09:30:41;;;;;;;13.20;11.37;;;;;;;2.59;100.00;100583.06;5054878;28;20206;-78
2022/12/19 09:33:08;;;;;;;15.23;12.33;;;;;;;2.57;100.00;100571.00;5057693;28;20209;-78
2022/12/19 09:35:34;;;;;;;12.87;11.57;;;;;;;2.65;100.00;100582.28;5056718;28;20205;-78
2022/12/19 09:38:02;;;;;;;11.67;10.53;;;;;;;2.66;100.00;100576.31;5055454;28;20224;-78
2022/12/19 09:40:34;;;;;;;12.07;10.80;;;;;;;2.74;100.00;100569.56;5055290;28;20206;-78
2022/12/19 09:43:10;;;;;;;10.73;9.67;;;;;;;2.76;100.00;100567.88;5054769;28;20681;-78
2022/12/19 09:45:46;;;;;;;11.93;10.73;;;;;;;2.80;100.00;100567.94;5056044;28;20220;-78
2022/12/19 09:48:15;;;;;;;12.10;10.90;;;;;;;2.76;100.00;100570.44;5055622;28;20315;-78
2022/12/19 09:50:51;;;;;;;11.60;10.43;;;;;;;2.78;100.00;100571.34;5055137;28;20254;-78
2022/12/19 09:53:24;;;;;;;12.30;11.10;;;;;;;2.83;100.00;100570.53;5054192;28;20235;-78
2022/12/19 09:55:53;;;;;;;12.93;10.83;;;;;;;2.88;100.00;100576.63;5055365;28;20237;-77
2022/12/19 09:58:30;;;;;;;12.13;10.93;;;;;;;2.85;100.00;100579.16;5054260;28;20201;-79
2022/12/19 10:01:02;;;;;;;11.27;10.17;;;;;;;2.91;100.00;100579.25;5054589;28;20680;-78
2022/12/19 10:03:32;;;;;;;11.97;10.90;;;;;;;2.94;100.00;100576.72;5054820;28;20224;-78
2022/12/19 10:06:02;;;;;;;10.83;9.77;;;;;;;3.02;100.00;100580.28;5054347;28;20221;-78
2022/12/19 10:08:34;;;;;;;11.67;10.60;;;;;;;3.05;100.00;100587.16;5054481;28;20226;-78
2022/12/19 10:11:07;;;;;;;13.67;11.93;;;;;;;3.06;100.00;100574.31;5053916;28;20205;-78
2022/12/19 10:13:53;;;;;;;11.97;10.80;;;;;;;3.04;100.00;100573.41;5053933;28;20237;-79
2022/12/19 10:16:29;;;;;;;13.03;11.70;;;;;;;3.14;100.00;100569.25;5054258;28;20207;-79
2022/12/19 10:18:58;;;;;;;13.20;12.00;;;;;;;3.20;100.00;100574.50;5054782;28;20216;-79
2022/12/19 10:21:34;;;;;;;13.40;12.20;;;;;;;3.16;100.00;100573.59;5055112;28;20235;-79
2022/12/19 10:24:33;;;;;;;13.63;12.13;;;;;;;3.28;100.00;100565.13;5054425;28;20236;-78
2022/12/19 10:27:02;;;;;;;12.60;11.33;;;;;;;3.29;100.00;100566.88;5035606;28;20233;-78
2022/12/19 10:29:55;;;;;;;13.10;11.80;;;;;;;3.33;100.00;100562.59;5054032;28;20217;-78
2022/12/19 10:32:30;;;;;;;12.77;11.47;;;;;;;3.38;100.00;100564.41;5054656;28;20292;-79
2022/12/19 10:34:57;;;;;;;13.83;12.47;;;;;;;3.43;100.00;100567.06;5054845;28;20235;-78
2022/12/19 10:37:26;;;;;;;13.83;12.53;;;;;;;3.47;100.00;100571.41;5054580;28;20289;-78
2022/12/19 10:40:05;;;;;;;13.77;12.37;;;;;;;3.47;100.00;100579.16;5053544;28;20684;-78
2022/12/19 10:42:40;;;;;;;14.43;13.13;;;;;;;3.42;100.00;100582.50;5052348;28;20225;-79
2022/12/19 10:45:14;;;;;;;12.73;11.53;;;;;;;3.49;100.00;100574.88;5053103;28;20719;-79
2022/12/19 10:47:42;;;;;;;13.57;12.27;;;;;;;3.56;100.00;100568.91;5053018;28;20259;-77
2022/12/19 10:50:12;;;;;;;13.97;12.47;;;;;;;3.63;100.00;100579.31;5051723;28;20239;-78
2022/12/19 10:52:47;;;;;;;15.07;13.40;;;;;;;3.65;100.00;100573.34;5050809;28;20213;-78
2022/12/19 10:55:34;;;;;;;14.53;13.03;;;;;;;3.71;100.00;100569.97;5053651;28;20230;-78
2022/12/19 10:58:19;;;;;;;15.43;13.93;;;;;;;3.71;100.00;100570.81;5054185;28;20210;-78
2022/12/19 11:00:56;;;;;;;16.33;14.57;;;;;;;3.72;100.00;100567.38;5053250;28;20260;-80
2022/12/19 11:03:24;;;;;;;14.10;12.60;;;;;;;3.82;100.00;100575.22;5053483;28;20229;-78
2022/12/19 11:05:52;;;;;;;15.07;13.57;;;;;;;3.85;100.00;100572.69;5051881;28;20212;-78
2022/12/19 11:08:24;;;;;;;16.40;14.43;;;;;;;3.86;100.00;100577.00;5052840;28;20230;-78
2022/12/19 11:10:54;;;;;;;15.87;14.27;;;;;;;3.87;100.00;100571.84;5051901;28;20210;-78
2022/12/19 11:13:24;;;;;;;16.27;14.27;;;;;;;3.92;100.00;100564.13;5052214;28;20229;-78
2022/12/19 11:15:53;;;;;;;17.57;14.63;;;;;;;3.94;100.00;100572.78;5052143;28;20236;-78
2022/12/19 11:18:20;;;;;;;17.23;15.63;;;;;;;4.01;100.00;100561.66;5051794;28;20206;-77
2022/12/19 11:21:00;;;;;;;16.33;14.83;;;;;;;4.07;100.00;100553.09;5051175;28;20215;-78
2022/12/19 11:23:31;;;;;;;16.30;14.50;;;;;;;4.07;100.00;100560.84;4342434;28;10000701;-79
2022/12/19 11:26:00;;;;;;;16.20;14.57;;;;;;;4.03;100.00;100559.97;5028611;28;20210;-77
2022/12/19 11:28:31;;;;;;;16.23;14.43;;;;;;;4.04;100.00;100545.31;5029186;28;20329;-79
2022/12/19 11:31:03;;;;;;;16.57;14.83;;;;;;;4.01;100.00;100538.41;5040995;28;20214;-79